TUI58 EDDG-EDLP
Flight info
| Callsign | TUI58 |
|---|---|
| Flight time | 0h 24m |
| Altitude | 13000 |
| Route | DOMEG1E/07 DOMEG DCT EXOBA EXOBA3H |
| Aircraft | B738/M-SDE2E3FGHIRWXY/LB1 |
Departure
| Time | 2026-04-30 21:12 |
|---|---|
| Airport | Münster Osnabrück Airport (EDDG) |
Arrival
| Time | 2026-04-30 21:37 |
|---|---|
| Airport | Paderborn Lippstadt Airport (EDLP) |
| Time | Latitude | Longitude | Altitude | Speed | Heading |
|---|---|---|---|---|---|
| 2026-04-30 20:56 | 52.13206 | 7.69551 | 167 ft | 0 kts | 198° |
| 2026-04-30 21:08 | 52.13205 | 7.69551 | 167 ft | 1 kts | 198° |
| 2026-04-30 21:08 | 52.13206 | 7.69530 | 167 ft | 4 kts | 294° |
| 2026-04-30 21:08 | 52.13259 | 7.69465 | 166 ft | 1 kts | 309° |
| 2026-04-30 21:09 | 52.13249 | 7.69422 | 166 ft | 10 kts | 247° |
| 2026-04-30 21:09 | 52.13293 | 7.69299 | 165 ft | 20 kts | 340° |
| 2026-04-30 21:09 | 52.13398 | 7.69241 | 164 ft | 18 kts | 342° |
| 2026-04-30 21:09 | 52.13410 | 7.69047 | 164 ft | 24 kts | 250° |
| 2026-04-30 21:10 | 52.13348 | 7.68755 | 166 ft | 30 kts | 251° |
| 2026-04-30 21:10 | 52.13285 | 7.68461 | 168 ft | 22 kts | 250° |
| 2026-04-30 21:10 | 52.13235 | 7.68224 | 169 ft | 22 kts | 251° |
| 2026-04-30 21:10 | 52.13185 | 7.67988 | 165 ft | 22 kts | 251° |
| 2026-04-30 21:11 | 52.13134 | 7.67745 | 162 ft | 24 kts | 251° |
| 2026-04-30 21:11 | 52.13078 | 7.67483 | 161 ft | 24 kts | 251° |
| 2026-04-30 21:11 | 52.13030 | 7.67230 | 163 ft | 23 kts | 264° |
| 2026-04-30 21:11 | 52.13104 | 7.67050 | 163 ft | 17 kts | 339° |
| 2026-04-30 21:12 | 52.13183 | 7.67157 | 161 ft | 22 kts | 70° |
| 2026-04-30 21:12 | 52.13358 | 7.67981 | 166 ft | 132 kts | 71° |
| 2026-04-30 21:12 | 52.13665 | 7.69735 | 830 ft | 177 kts | 86° |
| 2026-04-30 21:12 | 52.13444 | 7.71660 | 2235 ft | 171 kts | 123° |
| 2026-04-30 21:13 | 52.12510 | 7.72870 | 3331 ft | 178 kts | 158° |
| 2026-04-30 21:13 | 52.11224 | 7.72974 | 4258 ft | 196 kts | 186° |
| 2026-04-30 21:13 | 52.09895 | 7.72220 | 5127 ft | 206 kts | 197° |
| 2026-04-30 21:13 | 52.08521 | 7.71396 | 5715 ft | 224 kts | 193° |
| 2026-04-30 21:14 | 52.06971 | 7.70608 | 6226 ft | 242 kts | 191° |
| 2026-04-30 21:14 | 52.05290 | 7.69851 | 6725 ft | 250 kts | 189° |
| 2026-04-30 21:14 | 52.03606 | 7.69163 | 7170 ft | 251 kts | 188° |
| 2026-04-30 21:14 | 52.01906 | 7.68521 | 7674 ft | 250 kts | 188° |
| 2026-04-30 21:15 | 52.00201 | 7.67916 | 8170 ft | 251 kts | 187° |
| 2026-04-30 21:15 | 51.98453 | 7.67326 | 8702 ft | 268 kts | 187° |
| 2026-04-30 21:15 | 51.96568 | 7.66711 | 9236 ft | 283 kts | 187° |
| 2026-04-30 21:15 | 51.94620 | 7.66083 | 9759 ft | 285 kts | 187° |
| 2026-04-30 21:16 | 51.92666 | 7.65458 | 10283 ft | 287 kts | 187° |
| 2026-04-30 21:16 | 51.90700 | 7.64836 | 10747 ft | 290 kts | 187° |
| 2026-04-30 21:16 | 51.88715 | 7.64212 | 11237 ft | 291 kts | 186° |
| 2026-04-30 21:16 | 51.86719 | 7.63589 | 11725 ft | 293 kts | 186° |
| 2026-04-30 21:17 | 51.84716 | 7.62965 | 12226 ft | 294 kts | 186° |
| 2026-04-30 21:17 | 51.82697 | 7.62338 | 12723 ft | 296 kts | 186° |
| 2026-04-30 21:17 | 51.80668 | 7.61707 | 13234 ft | 299 kts | 186° |
| 2026-04-30 21:17 | 51.78605 | 7.61067 | 13369 ft | 305 kts | 186° |
| 2026-04-30 21:18 | 51.76522 | 7.60505 | 13369 ft | 301 kts | 178° |
| 2026-04-30 21:18 | 51.74534 | 7.61134 | 13390 ft | 288 kts | 150° |
| 2026-04-30 21:18 | 51.72976 | 7.63090 | 13387 ft | 283 kts | 127° |
| 2026-04-30 21:18 | 51.72054 | 7.65849 | 13389 ft | 281 kts | 107° |
| 2026-04-30 21:19 | 51.71791 | 7.68962 | 13382 ft | 282 kts | 88° |
| 2026-04-30 21:19 | 51.71979 | 7.72119 | 13385 ft | 283 kts | 84° |
| 2026-04-30 21:19 | 51.72238 | 7.75269 | 13376 ft | 284 kts | 84° |
| 2026-04-30 21:19 | 51.72508 | 7.78421 | 13378 ft | 283 kts | 83° |
| 2026-04-30 21:20 | 51.72775 | 7.81569 | 13379 ft | 283 kts | 83° |
| 2026-04-30 21:20 | 51.73034 | 7.84705 | 13385 ft | 282 kts | 84° |
| 2026-04-30 21:20 | 51.73287 | 7.87837 | 13387 ft | 281 kts | 84° |
| 2026-04-30 21:20 | 51.73535 | 7.90964 | 13388 ft | 281 kts | 84° |
| 2026-04-30 21:21 | 51.73780 | 7.94088 | 13383 ft | 280 kts | 84° |
| 2026-04-30 21:21 | 51.74023 | 7.97210 | 13394 ft | 280 kts | 84° |
| 2026-04-30 21:21 | 51.74502 | 8.03442 | 13388 ft | 280 kts | 84° |
| 2026-04-30 21:22 | 51.74740 | 8.06560 | 13399 ft | 280 kts | 84° |
| 2026-04-30 21:22 | 51.75449 | 8.15916 | 13401 ft | 280 kts | 84° |
| 2026-04-30 21:23 | 51.75684 | 8.19038 | 13312 ft | 282 kts | 84° |
| 2026-04-30 21:23 | 51.75921 | 8.22202 | 13044 ft | 283 kts | 84° |
| 2026-04-30 21:23 | 51.76383 | 8.28407 | 12516 ft | 272 kts | 84° |
| 2026-04-30 21:24 | 51.76489 | 8.31388 | 12281 ft | 261 kts | 97° |
| 2026-04-30 21:24 | 51.75969 | 8.34141 | 12041 ft | 254 kts | 113° |
| 2026-04-30 21:24 | 51.75024 | 8.36567 | 11799 ft | 258 kts | 123° |
| 2026-04-30 21:24 | 51.73927 | 8.38909 | 11571 ft | 265 kts | 125° |
| 2026-04-30 21:25 | 51.70623 | 8.41334 | 11075 ft | 272 kts | 174° |
| 2026-04-30 21:25 | 51.68782 | 8.41405 | 10716 ft | 261 kts | 174° |
| 2026-04-30 21:25 | 51.66983 | 8.41490 | 10246 ft | 255 kts | 174° |
| 2026-04-30 21:26 | 51.63506 | 8.41689 | 9189 ft | 245 kts | 173° |
| 2026-04-30 21:26 | 51.61813 | 8.41743 | 8679 ft | 244 kts | 180° |
| 2026-04-30 21:27 | 51.59080 | 8.38639 | 7678 ft | 258 kts | 241° |
| 2026-04-30 21:27 | 51.58458 | 8.35939 | 7214 ft | 256 kts | 249° |
| 2026-04-30 21:27 | 51.57918 | 8.33221 | 6729 ft | 254 kts | 249° |
| 2026-04-30 21:28 | 51.56886 | 8.27835 | 5705 ft | 250 kts | 249° |
| 2026-04-30 21:28 | 51.56391 | 8.25169 | 5210 ft | 248 kts | 249° |
| 2026-04-30 21:28 | 51.54644 | 8.20913 | 4163 ft | 223 kts | 199° |
| 2026-04-30 21:29 | 51.53174 | 8.20536 | 3661 ft | 206 kts | 166° |
| 2026-04-30 21:29 | 51.51578 | 8.25364 | 3004 ft | 163 kts | 88° |
| 2026-04-30 21:30 | 51.51879 | 8.28656 | 2992 ft | 132 kts | 88° |
| 2026-04-30 21:31 | 51.52386 | 8.32815 | 3005 ft | 128 kts | 88° |
| 2026-04-30 21:31 | 51.52709 | 8.35584 | 2995 ft | 124 kts | 88° |
| 2026-04-30 21:32 | 51.53041 | 8.38272 | 3001 ft | 122 kts | 88° |
| 2026-04-30 21:32 | 51.53209 | 8.39607 | 3020 ft | 127 kts | 88° |
| 2026-04-30 21:32 | 51.53378 | 8.41004 | 3011 ft | 127 kts | 88° |
| 2026-04-30 21:32 | 51.53686 | 8.42370 | 2885 ft | 140 kts | 70° |
| 2026-04-30 21:33 | 51.54196 | 8.43674 | 2697 ft | 134 kts | 69° |
| 2026-04-30 21:33 | 51.55088 | 8.46119 | 2106 ft | 124 kts | 72° |
| 2026-04-30 21:33 | 51.55542 | 8.47287 | 1955 ft | 123 kts | 65° |
| 2026-04-30 21:34 | 51.56016 | 8.48445 | 1852 ft | 126 kts | 65° |
| 2026-04-30 21:34 | 51.56931 | 8.50834 | 1743 ft | 125 kts | 62° |
| 2026-04-30 21:34 | 51.57476 | 8.51943 | 1684 ft | 127 kts | 59° |
| 2026-04-30 21:35 | 51.57973 | 8.53132 | 1559 ft | 132 kts | 64° |
| 2026-04-30 21:35 | 51.58450 | 8.54405 | 1367 ft | 131 kts | 63° |
| 2026-04-30 21:35 | 51.58918 | 8.55660 | 1222 ft | 128 kts | 60° |
| 2026-04-30 21:35 | 51.59435 | 8.56787 | 1087 ft | 122 kts | 58° |
| 2026-04-30 21:36 | 51.59907 | 8.57924 | 1037 ft | 123 kts | 60° |
| 2026-04-30 21:36 | 51.60373 | 8.59105 | 929 ft | 127 kts | 60° |
| 2026-04-30 21:37 | 51.61678 | 8.62305 | 696 ft | 79 kts | 58° |
| 2026-04-30 21:37 | 51.61859 | 8.62740 | 684 ft | 33 kts | 56° |
| 2026-04-30 21:37 | 51.61906 | 8.63006 | 680 ft | 11 kts | 111° |
| 2026-04-30 21:37 | 51.61826 | 8.63073 | 682 ft | 17 kts | 177° |
| 2026-04-30 21:38 | 51.61769 | 8.63000 | 683 ft | 13 kts | 233° |
| 2026-04-30 21:38 | 51.61711 | 8.62858 | 682 ft | 17 kts | 238° |
| 2026-04-30 21:38 | 51.61639 | 8.62675 | 695 ft | 21 kts | 237° |
| 2026-04-30 21:38 | 51.61549 | 8.62461 | 703 ft | 25 kts | 236° |
| 2026-04-30 21:39 | 51.61461 | 8.62249 | 714 ft | 15 kts | 237° |
| 2026-04-30 21:39 | 51.61446 | 8.62211 | 714 ft | 6 kts | 237° |
| 2026-04-30 21:39 | 51.61414 | 8.62130 | 717 ft | 11 kts | 237° |
| 2026-04-30 21:39 | 51.61346 | 8.62017 | 718 ft | 17 kts | 200° |
| 2026-04-30 21:40 | 51.61246 | 8.61980 | 727 ft | 10 kts | 192° |
| 2026-04-30 21:40 | 51.61179 | 8.61918 | 730 ft | 15 kts | 231° |
| 2026-04-30 21:40 | 51.61140 | 8.61908 | 730 ft | 8 kts | 154° |
| 2026-04-30 21:40 | 51.61121 | 8.61925 | 730 ft | 0 kts | 147° |